Coral Topaz — 3ELB7 — position and weather

sailwx.info

Track history (hours):
 
Tides and Currents Weather Stations Pressure Air Temp Water Temp Dewpoint Dewpoint Depression Visibility Wind Speed Wind Dir Waves Ship Positions

Coral Topaz

Last reported at 2017-Apr-16 17:07 UTC. Time now 2017-Apr-29 15:22 UTC.
Position S 27°37' E 153°51'.
Warning: this ship's position is 12 days out of date.

Length 225 m; draft 14.2 m.

Type: Ship. MMSI: 372904000.

Date/timePositionNaut miles runAvg speedWind from/ knotsBaromVisibWave heightAir tempDewpointWater temp
2017-Apr-16 17:07S 27°37' E 153°51'111.1
2017-Apr-16 17:00S 27°38' E 153°51'611.1
2017-Apr-16 16:30S 27°44' E 153°51'611.3
2017-Apr-16 16:00S 27°49' E 153°50'611.2
2017-Apr-16 15:30S 27°55' E 153°50'710.8
2017-Apr-16 14:49S 28°02' E 153°50'311.0
2017-Apr-16 14:30S 28°06' E 153°50'268 9.3
2017-Apr-15 09:37S 32°27' E 152°39'1110.4
2017-Apr-15 08:36S 32°35' E 152°31'110.3
2017-Apr-15 08:29S 32°36' E 152°30'510.4
2017-Apr-15 08:00S 32°40' E 152°26'510.6
2017-Apr-15 07:30S 32°44' E 152°21'510.6
2017-Apr-15 07:00S 32°47' E 152°17'510.6
2017-Apr-15 06:30S 32°51' E 152°13'510.6
2017-Apr-15 06:00S 32°55' E 152°08'5 9.7
2017-Apr-15 05:30S 32°57' E 152°03'510.3
2017-Apr-15 05:00S 32°57' E 151°56'5 9.3
2017-Apr-15 04:30S 32°57' E 151°51'3 6.9
2017-Apr-15 04:00S 32°55' E 151°48'2 3.8
2017-Apr-15 03:30S 32°54' E 151°46'2 0.4
2017-Apr-14 22:33S 32°53' E 151°45'0 0.0
2017-Apr-14 20:21S 32°53' E 151°45'0 0.0
2017-Apr-14 19:21S 32°53' E 151°45'0 0.0
2017-Apr-14 18:45S 32°53' E 151°45'0 0.0
2017-Apr-14 18:30S 32°53' E 151°45'0 0.0
2017-Apr-14 17:39S 32°53' E 151°45'0 0.0
2017-Apr-14 17:21S 32°53' E 151°45'0 0.0
2017-Apr-14 17:00S 32°53' E 151°45'0 0.0
2017-Apr-14 16:21S 32°53' E 151°45'0 0.0
2017-Apr-14 15:57S 32°53' E 151°45'0 0.0
2017-Apr-14 15:27S 32°53' E 151°45'0 0.0
2017-Apr-14 15:00S 32°53' E 151°45'0 0.0
2017-Apr-14 14:30S 32°53' E 151°45'0 0.0
2017-Apr-14 13:30S 32°53' E 151°45'0 0.0
2017-Apr-14 12:51S 32°53' E 151°45'0 0.0
2017-Apr-14 12:30S 32°53' E 151°45'0 0.0
2017-Apr-14 12:00S 32°53' E 151°45'0 0.0
2017-Apr-14 11:30S 32°53' E 151°45'0 0.0
2017-Apr-14 11:00S 32°53' E 151°45'0 0.0
2017-Apr-14 03:09S 32°53' E 151°45'0 0.0
2017-Apr-14 02:39S 32°53' E 151°45'0 0.0
2017-Apr-14 02:27S 32°53' E 151°45'0 0.0
2017-Apr-14 01:57S 32°53' E 151°45'0 0.0
2017-Apr-14 01:15S 32°53' E 151°45'0 0.0
2017-Apr-14 00:54S 32°53' E 151°45'0 0.0
2017-Apr-13 23:51S 32°53' E 151°45'0 0.0
2017-Apr-13 23:21S 32°53' E 151°45'0 0.0
2017-Apr-13 23:00S 32°53' E 151°45'0 0.0
2017-Apr-13 22:30S 32°53' E 151°45'0 0.0
2017-Apr-13 22:00S 32°53' E 151°45'0 0.0
2017-Apr-13 21:27S 32°53' E 151°45'0 0.0
2017-Apr-13 20:51S 32°53' E 151°45'0 0.0
2017-Apr-13 20:30S 32°53' E 151°45'0 0.0
2017-Apr-13 19:57S 32°53' E 151°45'0 0.0
2017-Apr-13 19:30S 32°53' E 151°45'0 0.0
2017-Apr-13 18:57S 32°53' E 151°45'0 0.0
2017-Apr-13 18:30S 32°53' E 151°45'0 0.0
2017-Apr-13 18:00S 32°53' E 151°45'0 0.0
2017-Apr-13 17:30S 32°53' E 151°45'0 0.0
2017-Apr-13 16:51S 32°53' E 151°45'0 0.0
2017-Apr-13 16:24S 32°53' E 151°45'0 0.0
2017-Apr-13 15:51S 32°53' E 151°45'0 0.0
2017-Apr-13 15:30S 32°53' E 151°45'0 0.0
2017-Apr-13 15:00S 32°53' E 151°45'0 0.0
2017-Apr-13 13:57S 32°53' E 151°45'0 0.0
2017-Apr-13 13:27S 32°53' E 151°45'0 0.0
2017-Apr-13 13:00S 32°53' E 151°45'0 0.0
2017-Apr-13 12:30S 32°53' E 151°45'0 0.0
2017-Apr-13 12:00S 32°53' E 151°45'0 0.0
2017-Apr-13 11:30S 32°53' E 151°45'0 0.0
2017-Apr-13 10:57S 32°53' E 151°45'0 0.0
2017-Apr-13 10:27S 32°53' E 151°45'0 0.0
2017-Apr-13 09:57S 32°53' E 151°45'0 0.0
2017-Apr-13 09:21S 32°53' E 151°45'0 0.0
2017-Apr-13 08:51S 32°53' E 151°45'0 0.0
2017-Apr-13 08:27S 32°53' E 151°45'0 0.0
2017-Apr-13 07:51S 32°53' E 151°45'0 0.0
2017-Apr-13 07:21S 32°53' E 151°45'0 0.0
2017-Apr-13 07:01S 32°53' E 151°45'0 0.8
2017-Apr-13 06:31S 32°53' E 151°45'1 2.6
2017-Apr-13 06:01S 32°54' E 151°46'2 4.0
2017-Apr-13 05:30S 32°55' E 151°49'4 8.4
2017-Apr-13 05:00S 32°58' E 151°52'3 5.5
2017-Apr-13 04:31S 33°00' E 151°53'3 5.3
2017-Apr-13 03:59S 33°03' E 151°55'1 1.3
2017-Apr-13 03:29S 33°03' E 151°56'1 1.3
2017-Apr-13 02:56S 33°03' E 151°57'1 1.3
2017-Apr-13 02:29S 33°03' E 151°57'1 1.4
2017-Apr-13 01:59S 33°04' E 151°58'1 0.7
2017-Apr-13 01:14S 33°04' E 151°58'0 1.1
2017-Apr-13 01:00S 33°04' E 151°58'3 6.0
2017-Apr-13 00:30S 33°01' E 151°57'1 1.4
2017-Apr-12 23:59S 33°02' E 151°57'1 1.5
2017-Apr-12 23:29S 33°02' E 151°58'1 1.6
2017-Apr-12 22:59S 33°03' E 151°58'1 1.2
2017-Apr-12 22:29S 33°03' E 151°58'1 1.1
2017-Apr-12 21:59S 33°04' E 151°58'1 1.0
2017-Apr-12 21:29S 33°05' E 151°58'1 1.0
2017-Apr-12 20:59S 33°05' E 151°58'1 1.1
2017-Apr-12 20:29S 33°06' E 151°58'1 1.2
2017-Apr-12 19:56S 33°06' E 151°58'1 1.3
2017-Apr-12 19:29S 33°07' E 151°58'1 1.3
2017-Apr-12 18:59S 33°07' E 151°58'1 1.2
2017-Apr-12 18:30S 33°08' E 151°58'4 7.2
2017-Apr-12 18:00S 33°04' E 151°56'2 4.1
2017-Apr-12 17:28S 33°02' E 151°57'1 1.4
2017-Apr-12 16:52S 33°03' E 151°57'1 1.1
2017-Apr-12 16:25S 33°03' E 151°58'1 1.4
2017-Apr-12 15:58S 33°03' E 151°59'1 1.3
2017-Apr-12 15:28S 33°03' E 151°59'1 1.3
2017-Apr-12 14:58S 33°03' E 152°00'1 1.2
2017-Apr-12 13:58S 33°04' E 152°01'1 1.2
2017-Apr-12 13:28S 33°04' E 152°02'1 1.2
2017-Apr-12 12:58S 33°05' E 152°02'1 1.3
2017-Apr-12 12:28S 33°05' E 152°03'1 1.5
2017-Apr-12 11:58S 33°06' E 152°04'1 1.3
2017-Apr-12 11:28S 33°06' E 152°04'1 1.3
2017-Apr-12 10:58S 33°06' E 152°05'1 1.4
2017-Apr-12 10:28S 33°07' E 152°05'1 1.6
2017-Apr-12 09:55S 33°07' E 152°06'1 1.6
2017-Apr-12 09:28S 33°08' E 152°07'1 1.8
2017-Apr-12 08:49S 33°09' E 152°08'1 1.8
2017-Apr-12 08:22S 33°10' E 152°08'1 1.9
2017-Apr-12 07:58S 33°10' E 152°09'1 1.9
2017-Apr-12 07:31S 33°11' E 152°09'0 0.8
2017-Apr-12 06:59S 33°11' E 152°10'3 6.7
2017-Apr-12 06:30S 33°08' E 152°09'5 9.5
2017-Apr-12 06:00S 33°03' E 152°09'5 9.8
2017-Apr-12 05:30S 32°58' E 152°09'5 9.8
2017-Apr-12 05:00S 32°54' E 152°09'1 2.8
2017-Apr-12 04:30S 32°52' E 152°10'1 1.7
2017-Apr-12 04:00S 32°53' E 152°10'1 1.6
2017-Apr-12 03:30S 32°54' E 152°11'1 1.7
2017-Apr-12 03:00S 32°54' E 152°11'1 1.8
2017-Apr-12 02:30S 32°55' E 152°12'1 1.9
2017-Apr-12 02:00S 32°56' E 152°12'1 1.8
2017-Apr-12 01:30S 32°57' E 152°12'1 1.8
2017-Apr-12 01:00S 32°58' E 152°13'1 1.8
2017-Apr-12 00:30S 32°58' E 152°14'4 7.5
2017-Apr-12 00:00S 32°55' E 152°17'4 7.4
2017-Apr-11 23:30S 32°52' E 152°20'4 7.0
2017-Apr-11 23:00S 32°50' E 152°23'3 6.8
2017-Apr-11 22:30S 32°47' E 152°25'3 5.1
2017-Apr-11 22:00S 32°44' E 152°24'1 1.9
2017-Apr-11 21:30S 32°45' E 152°24'1 2.2
2017-Apr-11 21:00S 32°46' E 152°23'1 2.0
2017-Apr-11 20:30S 32°47' E 152°22'1 2.1
2017-Apr-11 20:00S 32°48' E 152°22'1 2.0
2017-Apr-11 19:30S 32°48' E 152°21'1 1.9
2017-Apr-11 18:59S 32°49' E 152°20'1 2.1
2017-Apr-11 18:29S 32°50' E 152°19'1 2.1
2017-Apr-11 18:00S 32°51' E 152°19'1 2.2
2017-Apr-11 17:30S 32°52' E 152°18'1 2.3
2017-Apr-11 16:58S 32°53' E 152°17'1 2.2
2017-Apr-11 16:30S 32°54' E 152°17'1 2.1
2017-Apr-11 15:59S 32°55' E 152°16'1 2.0
2017-Apr-11 15:29S 32°55' E 152°15'1 2.3
2017-Apr-11 15:01S 32°56' E 152°14'1 2.2
2017-Apr-11 14:28S 32°57' E 152°13'2 2.1
2017-Apr-11 13:29S 32°59' E 152°12'1 2.4
2017-Apr-11 13:00S 32°60' E 152°11'1 2.1
2017-Apr-11 12:30S 33°01' E 152°10'1 2.2
2017-Apr-11 11:58S 33°02' E 152°10'1 2.1
2017-Apr-11 11:28S 33°03' E 152°09'1 2.2
2017-Apr-11 11:00S 33°03' E 152°08'1 2.1
2017-Apr-11 10:30S 33°04' E 152°08'3 6.2
2017-Apr-11 10:00S 33°02' E 152°05'3 5.9
2017-Apr-11 09:30S 32°60' E 152°03'3 5.9
2017-Apr-11 09:00S 32°58' E 151°60'2 4.6
2017-Apr-11 08:30S 32°57' E 152°02'3 6.6
2017-Apr-11 08:00S 32°55' E 152°06'3 6.0
2017-Apr-11 07:30S 32°53' E 152°08'3 5.9
2017-Apr-11 07:00S 32°51' E 152°11'3 6.0
2017-Apr-11 06:30S 32°49' E 152°13'3 6.2
2017-Apr-11 06:00S 32°47' E 152°16'3 5.7
2017-Apr-11 05:30S 32°45' E 152°19'3 5.3
2017-Apr-11 05:00S 32°44' E 152°21'3 5.2
2017-Apr-11 04:30S 32°41' E 152°23'3 5.3
2017-Apr-11 04:00S 32°40' E 152°25'3 5.4
2017-Apr-11 03:30S 32°38' E 152°27'3 6.0
2017-Apr-11 03:00S 32°36' E 152°30'3 5.8
2017-Apr-11 02:30S 32°34' E 152°32'3 6.7
2017-Apr-11 02:00S 32°32' E 152°35'3 6.9
2017-Apr-11 01:30S 32°29' E 152°38'26813.5
2017-Apr-10 05:38S 28°08' E 153°50'213.4
2017-Apr-10 05:30S 28°07' E 153°50'713.2
2017-Apr-10 05:00S 28°00' E 153°50'612.9
2017-Apr-10 04:30S 27°54' E 153°50'612.8
2017-Apr-10 04:00S 27°47' E 153°50'612.5
2017-Apr-10 03:30S 27°41' E 153°51'612.4
2017-Apr-10 03:00S 27°35' E 153°51'1012.3
2017-Apr-10 02:14S 27°25' E 153°51'412.3
2017-Apr-10 01:55S 27°22' E 153°51'512.3
2017-Apr-10 01:30S 27°16' E 153°52'612.4
2017-Apr-10 01:00S 27°10' E 153°52'612.5
2017-Apr-10 00:30S 27°04' E 153°52'612.4
2017-Apr-10 00:00S 26°58' E 153°52'712.4
2017-Apr-09 23:26S 26°51' E 153°52'512.6
2017-Apr-09 23:00S 26°45' E 153°52'510.2
2017-Apr-09 22:30S 26°40' E 153°51'612.3
2017-Apr-09 22:00S 26°35' E 153°54'713.3
2017-Apr-09 21:29S 26°28' E 153°54'713.7
2017-Apr-09 21:00S 26°21' E 153°54'914.2
2017-Apr-09 20:22S 26°12' E 153°55'  
Track history (hours):
 
Tides and Currents Weather Stations Pressure Air Temp Water Temp Dewpoint Dewpoint Depression Visibility Wind Speed Wind Dir Waves Ship Positions

Coral Topaz

Last reported at 2017-Apr-16 17:07 UTC. Time now 2017-Apr-29 15:22 UTC.
Position S 27°37' E 153°51'.
Warning: this ship's position is 12 days out of date.

Length 225 m; draft 14.2 m.

Type: Ship. MMSI: 372904000.

Date/timePositionNaut miles runAvg speedWind from/ knotsBaromVisibWave heightAir tempDewpointWater temp
2017-Apr-16 17:07S 27°37' E 153°51'111.1
2017-Apr-16 17:00S 27°38' E 153°51'611.1
2017-Apr-16 16:30S 27°44' E 153°51'611.3
2017-Apr-16 16:00S 27°49' E 153°50'611.2
2017-Apr-16 15:30S 27°55' E 153°50'710.8
2017-Apr-16 14:49S 28°02' E 153°50'311.0
2017-Apr-16 14:30S 28°06' E 153°50'268 9.3
2017-Apr-15 09:37S 32°27' E 152°39'1110.4
2017-Apr-15 08:36S 32°35' E 152°31'110.3
2017-Apr-15 08:29S 32°36' E 152°30'510.4
2017-Apr-15 08:00S 32°40' E 152°26'510.6
2017-Apr-15 07:30S 32°44' E 152°21'510.6
2017-Apr-15 07:00S 32°47' E 152°17'510.6
2017-Apr-15 06:30S 32°51' E 152°13'510.6
2017-Apr-15 06:00S 32°55' E 152°08'5 9.7
2017-Apr-15 05:30S 32°57' E 152°03'510.3
2017-Apr-15 05:00S 32°57' E 151°56'5 9.3
2017-Apr-15 04:30S 32°57' E 151°51'3 6.9
2017-Apr-15 04:00S 32°55' E 151°48'2 3.8
2017-Apr-15 03:30S 32°54' E 151°46'2 0.4
2017-Apr-14 22:33S 32°53' E 151°45'0 0.0
2017-Apr-14 20:21S 32°53' E 151°45'0 0.0
2017-Apr-14 19:21S 32°53' E 151°45'0 0.0
2017-Apr-14 18:45S 32°53' E 151°45'0 0.0
2017-Apr-14 18:30S 32°53' E 151°45'0 0.0
2017-Apr-14 17:39S 32°53' E 151°45'0 0.0
2017-Apr-14 17:21S 32°53' E 151°45'0 0.0
2017-Apr-14 17:00S 32°53' E 151°45'0 0.0
2017-Apr-14 16:21S 32°53' E 151°45'0 0.0
2017-Apr-14 15:57S 32°53' E 151°45'0 0.0
2017-Apr-14 15:27S 32°53' E 151°45'0 0.0
2017-Apr-14 15:00S 32°53' E 151°45'0 0.0
2017-Apr-14 14:30S 32°53' E 151°45'0 0.0
2017-Apr-14 13:30S 32°53' E 151°45'0 0.0
2017-Apr-14 12:51S 32°53' E 151°45'0 0.0
2017-Apr-14 12:30S 32°53' E 151°45'0 0.0
2017-Apr-14 12:00S 32°53' E 151°45'0 0.0
2017-Apr-14 11:30S 32°53' E 151°45'0 0.0
2017-Apr-14 11:00S 32°53' E 151°45'0 0.0
2017-Apr-14 03:09S 32°53' E 151°45'0 0.0
2017-Apr-14 02:39S 32°53' E 151°45'0 0.0
2017-Apr-14 02:27S 32°53' E 151°45'0 0.0
2017-Apr-14 01:57S 32°53' E 151°45'0 0.0
2017-Apr-14 01:15S 32°53' E 151°45'0 0.0
2017-Apr-14 00:54S 32°53' E 151°45'0 0.0
2017-Apr-13 23:51S 32°53' E 151°45'0 0.0
2017-Apr-13 23:21S 32°53' E 151°45'0 0.0
2017-Apr-13 23:00S 32°53' E 151°45'0 0.0
2017-Apr-13 22:30S 32°53' E 151°45'0 0.0
2017-Apr-13 22:00S 32°53' E 151°45'0 0.0
2017-Apr-13 21:27S 32°53' E 151°45'0 0.0
2017-Apr-13 20:51S 32°53' E 151°45'0 0.0
2017-Apr-13 20:30S 32°53' E 151°45'0 0.0
2017-Apr-13 19:57S 32°53' E 151°45'0 0.0
2017-Apr-13 19:30S 32°53' E 151°45'0 0.0
2017-Apr-13 18:57S 32°53' E 151°45'0 0.0
2017-Apr-13 18:30S 32°53' E 151°45'0 0.0
2017-Apr-13 18:00S 32°53' E 151°45'0 0.0
2017-Apr-13 17:30S 32°53' E 151°45'0 0.0
2017-Apr-13 16:51S 32°53' E 151°45'0 0.0
2017-Apr-13 16:24S 32°53' E 151°45'0 0.0
2017-Apr-13 15:51S 32°53' E 151°45'0 0.0
2017-Apr-13 15:30S 32°53' E 151°45'0 0.0
2017-Apr-13 15:00S 32°53' E 151°45'0 0.0
2017-Apr-13 13:57S 32°53' E 151°45'0 0.0
2017-Apr-13 13:27S 32°53' E 151°45'0 0.0
2017-Apr-13 13:00S 32°53' E 151°45'0 0.0
2017-Apr-13 12:30S 32°53' E 151°45'0 0.0
2017-Apr-13 12:00S 32°53' E 151°45'0 0.0
2017-Apr-13 11:30S 32°53' E 151°45'0 0.0
2017-Apr-13 10:57S 32°53' E 151°45'0 0.0
2017-Apr-13 10:27S 32°53' E 151°45'0 0.0
2017-Apr-13 09:57S 32°53' E 151°45'0 0.0
2017-Apr-13 09:21S 32°53' E 151°45'0 0.0
2017-Apr-13 08:51S 32°53' E 151°45'0 0.0
2017-Apr-13 08:27S 32°53' E 151°45'0 0.0
2017-Apr-13 07:51S 32°53' E 151°45'0 0.0
2017-Apr-13 07:21S 32°53' E 151°45'0 0.0
2017-Apr-13 07:01S 32°53' E 151°45'0 0.8
2017-Apr-13 06:31S 32°53' E 151°45'1 2.6
2017-Apr-13 06:01S 32°54' E 151°46'2 4.0
2017-Apr-13 05:30S 32°55' E 151°49'4 8.4
2017-Apr-13 05:00S 32°58' E 151°52'3 5.5
2017-Apr-13 04:31S 33°00' E 151°53'3 5.3
2017-Apr-13 03:59S 33°03' E 151°55'1 1.3
2017-Apr-13 03:29S 33°03' E 151°56'1 1.3
2017-Apr-13 02:56S 33°03' E 151°57'1 1.3
2017-Apr-13 02:29S 33°03' E 151°57'1 1.4
2017-Apr-13 01:59S 33°04' E 151°58'1 0.7
2017-Apr-13 01:14S 33°04' E 151°58'0 1.1
2017-Apr-13 01:00S 33°04' E 151°58'3 6.0
2017-Apr-13 00:30S 33°01' E 151°57'1 1.4
2017-Apr-12 23:59S 33°02' E 151°57'1 1.5
2017-Apr-12 23:29S 33°02' E 151°58'1 1.6
2017-Apr-12 22:59S 33°03' E 151°58'1 1.2
2017-Apr-12 22:29S 33°03' E 151°58'1 1.1
2017-Apr-12 21:59S 33°04' E 151°58'1 1.0
2017-Apr-12 21:29S 33°05' E 151°58'1 1.0
2017-Apr-12 20:59S 33°05' E 151°58'1 1.1
2017-Apr-12 20:29S 33°06' E 151°58'1 1.2
2017-Apr-12 19:56S 33°06' E 151°58'1 1.3
2017-Apr-12 19:29S 33°07' E 151°58'1 1.3
2017-Apr-12 18:59S 33°07' E 151°58'1 1.2
2017-Apr-12 18:30S 33°08' E 151°58'4 7.2
2017-Apr-12 18:00S 33°04' E 151°56'2 4.1
2017-Apr-12 17:28S 33°02' E 151°57'1 1.4
2017-Apr-12 16:52S 33°03' E 151°57'1 1.1
2017-Apr-12 16:25S 33°03' E 151°58'1 1.4
2017-Apr-12 15:58S 33°03' E 151°59'1 1.3
2017-Apr-12 15:28S 33°03' E 151°59'1 1.3
2017-Apr-12 14:58S 33°03' E 152°00'1 1.2
2017-Apr-12 13:58S 33°04' E 152°01'1 1.2
2017-Apr-12 13:28S 33°04' E 152°02'1 1.2
2017-Apr-12 12:58S 33°05' E 152°02'1 1.3
2017-Apr-12 12:28S 33°05' E 152°03'1 1.5
2017-Apr-12 11:58S 33°06' E 152°04'1 1.3
2017-Apr-12 11:28S 33°06' E 152°04'1 1.3
2017-Apr-12 10:58S 33°06' E 152°05'1 1.4
2017-Apr-12 10:28S 33°07' E 152°05'1 1.6
2017-Apr-12 09:55S 33°07' E 152°06'1 1.6
2017-Apr-12 09:28S 33°08' E 152°07'1 1.8
2017-Apr-12 08:49S 33°09' E 152°08'1 1.8
2017-Apr-12 08:22S 33°10' E 152°08'1 1.9
2017-Apr-12 07:58S 33°10' E 152°09'1 1.9
2017-Apr-12 07:31S 33°11' E 152°09'0 0.8
2017-Apr-12 06:59S 33°11' E 152°10'3 6.7
2017-Apr-12 06:30S 33°08' E 152°09'5 9.5
2017-Apr-12 06:00S 33°03' E 152°09'5 9.8
2017-Apr-12 05:30S 32°58' E 152°09'5 9.8
2017-Apr-12 05:00S 32°54' E 152°09'1 2.8
2017-Apr-12 04:30S 32°52' E 152°10'1 1.7
2017-Apr-12 04:00S 32°53' E 152°10'1 1.6
2017-Apr-12 03:30S 32°54' E 152°11'1 1.7
2017-Apr-12 03:00S 32°54' E 152°11'1 1.8
2017-Apr-12 02:30S 32°55' E 152°12'1 1.9
2017-Apr-12 02:00S 32°56' E 152°12'1 1.8
2017-Apr-12 01:30S 32°57' E 152°12'1 1.8
2017-Apr-12 01:00S 32°58' E 152°13'1 1.8
2017-Apr-12 00:30S 32°58' E 152°14'4 7.5
2017-Apr-12 00:00S 32°55' E 152°17'4 7.4
2017-Apr-11 23:30S 32°52' E 152°20'4 7.0
2017-Apr-11 23:00S 32°50' E 152°23'3 6.8
2017-Apr-11 22:30S 32°47' E 152°25'3 5.1
2017-Apr-11 22:00S 32°44' E 152°24'1 1.9
2017-Apr-11 21:30S 32°45' E 152°24'1 2.2
2017-Apr-11 21:00S 32°46' E 152°23'1 2.0
2017-Apr-11 20:30S 32°47' E 152°22'1 2.1
2017-Apr-11 20:00S 32°48' E 152°22'1 2.0
2017-Apr-11 19:30S 32°48' E 152°21'1 1.9
2017-Apr-11 18:59S 32°49' E 152°20'1 2.1
2017-Apr-11 18:29S 32°50' E 152°19'1 2.1
2017-Apr-11 18:00S 32°51' E 152°19'1 2.2
2017-Apr-11 17:30S 32°52' E 152°18'1 2.3
2017-Apr-11 16:58S 32°53' E 152°17'1 2.2
2017-Apr-11 16:30S 32°54' E 152°17'1 2.1
2017-Apr-11 15:59S 32°55' E 152°16'1 2.0
2017-Apr-11 15:29S 32°55' E 152°15'1 2.3
2017-Apr-11 15:01S 32°56' E 152°14'1 2.2
2017-Apr-11 14:28S 32°57' E 152°13'2 2.1
2017-Apr-11 13:29S 32°59' E 152°12'1 2.4
2017-Apr-11 13:00S 32°60' E 152°11'1 2.1
2017-Apr-11 12:30S 33°01' E 152°10'1 2.2
2017-Apr-11 11:58S 33°02' E 152°10'1 2.1
2017-Apr-11 11:28S 33°03' E 152°09'1 2.2
2017-Apr-11 11:00S 33°03' E 152°08'1 2.1
2017-Apr-11 10:30S 33°04' E 152°08'3 6.2
2017-Apr-11 10:00S 33°02' E 152°05'3 5.9
2017-Apr-11 09:30S 32°60' E 152°03'3 5.9
2017-Apr-11 09:00S 32°58' E 151°60'2 4.6
2017-Apr-11 08:30S 32°57' E 152°02'3 6.6
2017-Apr-11 08:00S 32°55' E 152°06'3 6.0
2017-Apr-11 07:30S 32°53' E 152°08'3 5.9
2017-Apr-11 07:00S 32°51' E 152°11'3 6.0
2017-Apr-11 06:30S 32°49' E 152°13'3 6.2
2017-Apr-11 06:00S 32°47' E 152°16'3 5.7
2017-Apr-11 05:30S 32°45' E 152°19'3 5.3
2017-Apr-11 05:00S 32°44' E 152°21'3 5.2
2017-Apr-11 04:30S 32°41' E 152°23'3 5.3
2017-Apr-11 04:00S 32°40' E 152°25'3 5.4
2017-Apr-11 03:30S 32°38' E 152°27'3 6.0
2017-Apr-11 03:00S 32°36' E 152°30'3 5.8
2017-Apr-11 02:30S 32°34' E 152°32'3 6.7
2017-Apr-11 02:00S 32°32' E 152°35'3 6.9
2017-Apr-11 01:30S 32°29' E 152°38'26813.5
2017-Apr-10 05:38S 28°08' E 153°50'213.4
2017-Apr-10 05:30S 28°07' E 153°50'713.2
2017-Apr-10 05:00S 28°00' E 153°50'612.9
2017-Apr-10 04:30S 27°54' E 153°50'612.8
2017-Apr-10 04:00S 27°47' E 153°50'612.5
2017-Apr-10 03:30S 27°41' E 153°51'612.4
2017-Apr-10 03:00S 27°35' E 153°51'1012.3
2017-Apr-10 02:14S 27°25' E 153°51'412.3
2017-Apr-10 01:55S 27°22' E 153°51'512.3
2017-Apr-10 01:30S 27°16' E 153°52'612.4
2017-Apr-10 01:00S 27°10' E 153°52'612.5
2017-Apr-10 00:30S 27°04' E 153°52'612.4
2017-Apr-10 00:00S 26°58' E 153°52'712.4
2017-Apr-09 23:26S 26°51' E 153°52'512.6
2017-Apr-09 23:00S 26°45' E 153°52'510.2
2017-Apr-09 22:30S 26°40' E 153°51'612.3
2017-Apr-09 22:00S 26°35' E 153°54'713.3
2017-Apr-09 21:29S 26°28' E 153°54'713.7
2017-Apr-09 21:00S 26°21' E 153°54'914.2
2017-Apr-09 20:22S 26°12' E 153°55'  

Dump ship's entire track history